createdAt,value
2018-03-28T00:00:10.174Z,9.30
2018-03-28T00:02:38.738Z,9.30
2018-03-28T00:05:07.648Z,9.30
2018-03-28T00:07:35.826Z,9.30
2018-03-28T00:10:04.182Z,9.30
2018-03-28T00:12:32.350Z,9.30
2018-03-28T00:15:01.273Z,9.20
2018-03-28T00:17:29.463Z,9.30
2018-03-28T00:19:57.645Z,9.20
2018-03-28T00:22:25.892Z,9.20
2018-03-28T00:24:54.077Z,9.20
2018-03-28T00:27:22.238Z,9.20
2018-03-28T00:29:50.412Z,9.20
2018-03-28T00:32:18.843Z,9.20
2018-03-28T00:34:46.991Z,9.10
2018-03-28T00:37:15.353Z,9.10
2018-03-28T00:39:43.519Z,9.10
2018-03-28T00:42:11.678Z,9.10
2018-03-28T00:44:40.145Z,9.10
2018-03-28T00:47:09.076Z,9.10
2018-03-28T00:49:37.431Z,9.10
2018-03-28T00:52:06.314Z,9.10
2018-03-28T00:54:34.484Z,9.10
2018-03-28T00:57:03.079Z,9.10
2018-03-28T00:59:31.292Z,9.10
2018-03-28T01:01:59.530Z,9.10
2018-03-28T01:04:27.797Z,9.10
2018-03-28T01:06:56.170Z,9.10
2018-03-28T01:09:25.129Z,9.10
2018-03-28T01:11:53.270Z,9.10
2018-03-28T01:14:21.427Z,9.10
2018-03-28T01:16:49.901Z,9.10
2018-03-28T01:19:18.062Z,9.10
2018-03-28T01:21:46.962Z,9.10
2018-03-28T01:24:15.548Z,9.10
2018-03-28T01:26:43.696Z,9.10
2018-03-28T01:29:12.613Z,9.10
2018-03-28T01:31:40.771Z,9.10
2018-03-28T01:34:09.164Z,9.10
2018-03-28T01:36:38.076Z,9.10
2018-03-28T01:39:06.362Z,9.10
2018-03-28T01:41:34.525Z,9.10
2018-03-28T01:44:02.869Z,9.10
2018-03-28T01:46:31.871Z,9.10
2018-03-28T01:49:00.393Z,9.00
2018-03-28T01:51:28.556Z,9.10
2018-03-28T01:53:56.751Z,9.10
2018-03-28T01:56:24.919Z,9.10
2018-03-28T01:58:53.131Z,9.10
2018-03-28T02:01:21.375Z,9.10
2018-03-28T02:03:49.691Z,9.00
2018-03-28T02:06:18.604Z,9.00
2018-03-28T02:08:46.848Z,9.00
2018-03-28T02:11:15.155Z,9.00
2018-03-28T02:13:43.404Z,9.00
2018-03-28T02:16:11.713Z,9.00
2018-03-28T02:18:39.869Z,9.00
2018-03-28T02:21:09.321Z,8.90
2018-03-28T02:23:37.532Z,9.00
2018-03-28T02:26:05.833Z,8.90
2018-03-28T02:28:34.109Z,8.80
2018-03-28T02:31:02.300Z,8.90
2018-03-28T02:33:30.538Z,8.90
2018-03-28T02:35:59.478Z,8.90
2018-03-28T02:38:27.725Z,8.90
2018-03-28T02:40:55.903Z,8.90
2018-03-28T02:43:24.176Z,8.90
2018-03-28T02:45:52.492Z,8.90
2018-03-28T02:48:20.699Z,8.90
2018-03-28T02:50:48.870Z,8.80
2018-03-28T02:53:17.255Z,8.80
2018-03-28T02:55:45.418Z,8.70
2018-03-28T02:58:13.576Z,8.70
2018-03-28T03:00:41.741Z,8.70
2018-03-28T03:03:09.906Z,8.70
2018-03-28T03:05:38.035Z,8.70
2018-03-28T03:08:06.225Z,8.70
2018-03-28T03:10:34.376Z,8.80
2018-03-28T03:13:03.296Z,8.80
2018-03-28T03:15:32.284Z,8.70
2018-03-28T03:18:00.435Z,8.70
2018-03-28T03:20:28.849Z,8.70
2018-03-28T03:22:57.031Z,8.70
2018-03-28T03:25:25.185Z,8.70
2018-03-28T03:27:53.552Z,8.70
2018-03-28T03:30:21.767Z,8.70
2018-03-28T03:32:50.087Z,8.70
2018-03-28T03:35:18.993Z,8.70
2018-03-28T03:37:47.274Z,8.70
2018-03-28T03:40:15.438Z,8.70
2018-03-28T03:42:43.677Z,8.70
2018-03-28T03:45:11.844Z,8.70
2018-03-28T03:47:40.037Z,8.70
2018-03-28T03:50:08.208Z,8.70
2018-03-28T03:52:36.536Z,8.70
2018-03-28T03:55:05.482Z,8.70
2018-03-28T03:57:33.626Z,8.60
2018-03-28T04:00:01.798Z,8.60
2018-03-28T04:02:29.951Z,8.60
2018-03-28T04:04:58.103Z,8.60
2018-03-28T04:07:26.333Z,8.60
2018-03-28T04:09:54.496Z,8.50
2018-03-28T04:12:22.644Z,8.60
2018-03-28T04:14:50.803Z,8.50
2018-03-28T04:17:19.739Z,8.50
2018-03-28T04:19:47.895Z,8.50
2018-03-28T04:22:16.374Z,8.50
2018-03-28T04:24:45.646Z,8.50
2018-03-28T04:27:13.976Z,8.50
2018-03-28T04:29:42.227Z,8.50
2018-03-28T04:32:10.407Z,8.40
2018-03-28T04:34:38.688Z,8.30
2018-03-28T04:37:06.832Z,8.20
2018-03-28T04:39:35.830Z,8.10
2018-03-28T04:42:04.016Z,8.00
2018-03-28T04:44:32.240Z,7.90
2018-03-28T04:47:00.432Z,7.90
2018-03-28T04:49:29.011Z,7.80
2018-03-28T04:51:58.011Z,7.70
2018-03-28T04:54:26.184Z,7.70
2018-03-28T04:56:55.105Z,7.60
2018-03-28T04:59:23.246Z,7.60
2018-03-28T05:01:52.207Z,7.70
2018-03-28T05:04:20.641Z,7.70
2018-03-28T05:06:48.992Z,7.80
2018-03-28T05:09:18.021Z,7.80
2018-03-28T05:11:46.351Z,7.80
2018-03-28T05:14:14.520Z,7.80
2018-03-28T05:16:44.340Z,8.00
2018-03-28T05:19:12.634Z,8.00
2018-03-28T05:21:41.562Z,8.40
2018-03-28T05:24:10.004Z,8.40
2018-03-28T05:26:38.291Z,8.20
2018-03-28T05:29:06.552Z,8.10
2018-03-28T05:31:35.482Z,7.80
2018-03-28T05:34:03.636Z,7.80
2018-03-28T05:36:32.060Z,7.70
2018-03-28T05:39:00.253Z,7.70
2018-03-28T05:41:29.183Z,7.70
2018-03-28T05:43:57.372Z,7.70
2018-03-28T05:46:25.543Z,7.70
2018-03-28T05:48:53.860Z,7.70
2018-03-28T05:51:22.043Z,7.70
2018-03-28T05:53:50.348Z,7.70
2018-03-28T05:56:18.668Z,7.70
2018-03-28T05:58:46.818Z,7.70
2018-03-28T06:01:14.995Z,7.70
2018-03-28T06:03:43.164Z,7.70
2018-03-28T06:06:11.320Z,7.70
2018-03-28T06:08:40.280Z,7.70
2018-03-28T06:11:08.579Z,7.70
2018-03-28T06:13:37.487Z,7.70
2018-03-28T06:16:05.663Z,7.60
2018-03-28T06:18:33.824Z,7.70
2018-03-28T06:21:02.836Z,7.70
2018-03-28T06:23:31.006Z,7.70
2018-03-28T06:25:59.151Z,7.70
2018-03-28T06:28:28.062Z,7.90
2018-03-28T06:30:56.216Z,7.80
2018-03-28T06:33:25.456Z,7.90
2018-03-28T06:35:53.670Z,7.90
2018-03-28T06:38:21.851Z,7.90
2018-03-28T06:40:50.015Z,8.00
2018-03-28T06:43:18.964Z,8.10
2018-03-28T06:45:47.128Z,8.00
2018-03-28T06:48:15.372Z,8.10
2018-03-28T06:50:44.287Z,8.10
2018-03-28T06:53:13.342Z,8.20
2018-03-28T06:55:41.526Z,8.20
2018-03-28T06:58:09.672Z,8.30
2018-03-28T07:00:38.017Z,8.30
2018-03-28T07:03:06.342Z,8.40
2018-03-28T07:05:35.289Z,8.50
2018-03-28T07:08:03.460Z,8.50
2018-03-28T07:10:31.625Z,8.50
2018-03-28T07:12:59.771Z,8.50
2018-03-28T07:15:28.568Z,8.50
2018-03-28T07:17:57.642Z,8.50
2018-03-28T07:20:26.038Z,8.50
2018-03-28T07:22:54.211Z,8.60
2018-03-28T07:25:23.125Z,8.80
2018-03-28T07:27:52.200Z,8.90
2018-03-28T07:30:21.470Z,8.90
2018-03-28T07:32:49.708Z,9.00
2018-03-28T07:35:17.858Z,9.20
2018-03-28T07:37:46.829Z,10.10
2018-03-28T07:40:14.974Z,10.10
2018-03-28T07:42:43.343Z,10.50
2018-03-28T07:45:11.610Z,10.80
2018-03-28T07:47:39.772Z,10.70
2018-03-28T07:50:08.033Z,10.80
2018-03-28T07:52:37.000Z,10.80
2018-03-28T07:55:05.372Z,10.80
2018-03-28T07:57:33.782Z,10.80
2018-03-28T08:00:01.980Z,10.60
2018-03-28T08:02:30.162Z,10.50
2018-03-28T08:04:58.633Z,10.50
2018-03-28T08:07:26.809Z,10.60
2018-03-28T08:09:54.973Z,10.60
2018-03-28T08:12:23.239Z,10.50
2018-03-28T08:14:52.180Z,10.60
2018-03-28T08:17:20.515Z,10.60
2018-03-28T08:19:48.706Z,10.50
2018-03-28T08:22:17.099Z,10.60
2018-03-28T08:24:45.266Z,10.50
2018-03-28T08:27:13.414Z,10.60
2018-03-28T08:29:41.648Z,10.60
2018-03-28T08:32:09.806Z,10.60
2018-03-28T08:34:37.981Z,10.60
2018-03-28T08:37:06.170Z,10.60
2018-03-28T08:39:34.328Z,10.50
2018-03-28T08:42:02.641Z,10.40
2018-03-28T08:44:32.351Z,10.60
2018-03-28T08:47:01.286Z,10.70
2018-03-28T08:49:29.484Z,10.70
2018-03-28T08:51:57.694Z,10.90
2018-03-28T08:54:27.015Z,11.00
2018-03-28T08:56:55.211Z,11.00
2018-03-28T08:59:23.658Z,11.00
2018-03-28T09:01:51.853Z,11.00
2018-03-28T09:04:20.208Z,11.10
2018-03-28T09:06:48.385Z,11.10
2018-03-28T09:09:17.310Z,10.60
2018-03-28T09:11:45.480Z,10.60
2018-03-28T09:14:13.818Z,10.30
2018-03-28T09:16:42.830Z,9.90
2018-03-28T09:19:11.229Z,9.90
2018-03-28T09:21:39.368Z,9.80
2018-03-28T09:24:08.360Z,9.80
2018-03-28T09:26:37.282Z,9.80
2018-03-28T09:29:09.565Z,9.80
2018-03-28T09:31:37.734Z,9.70
2018-03-28T09:34:05.960Z,9.60
2018-03-28T09:36:34.405Z,9.60
2018-03-28T09:39:03.319Z,9.70
2018-03-28T09:41:31.670Z,9.80
2018-03-28T09:43:59.976Z,9.80
2018-03-28T09:46:28.233Z,9.70
2018-03-28T09:49:00.123Z,9.70
2018-03-28T09:51:29.018Z,9.70
2018-03-28T09:53:57.961Z,9.60
2018-03-28T09:56:26.134Z,9.50
2018-03-28T09:58:54.286Z,9.50
2018-03-28T10:01:28.310Z,9.50
2018-03-28T10:04:02.558Z,9.70
2018-03-28T10:06:31.784Z,9.80
2018-03-28T10:09:01.580Z,9.90
2018-03-28T10:11:30.143Z,9.90
2018-03-28T10:13:59.825Z,9.80
2018-03-28T10:16:28.061Z,9.80
2018-03-28T10:18:56.992Z,9.70
2018-03-28T10:21:25.151Z,9.70
2018-03-28T10:23:53.888Z,9.50
2018-03-28T10:26:22.815Z,9.30
2018-03-28T10:28:51.854Z,9.10
2018-03-28T10:31:20.178Z,9.10
2018-03-28T10:33:49.174Z,9.00
2018-03-28T10:36:18.164Z,8.90
2018-03-28T10:38:47.414Z,9.00
2018-03-28T10:41:15.566Z,9.00
2018-03-28T10:43:43.757Z,9.00
2018-03-28T10:46:11.893Z,9.00
2018-03-28T10:48:40.805Z,8.90
2018-03-28T10:51:08.975Z,8.90
2018-03-28T10:53:38.527Z,9.10
2018-03-28T10:56:06.663Z,9.10
2018-03-28T10:58:34.821Z,9.10
2018-03-28T11:01:02.957Z,9.10
2018-03-28T11:03:31.095Z,9.00
2018-03-28T11:05:59.395Z,9.00
2018-03-28T11:08:27.689Z,9.00
2018-03-28T11:10:56.266Z,9.00
2018-03-28T11:13:24.434Z,9.00
2018-03-28T11:15:52.587Z,9.10
2018-03-28T11:18:20.923Z,9.20
2018-03-28T11:20:49.173Z,9.20
2018-03-28T11:23:17.988Z,9.40
2018-03-28T11:25:46.347Z,9.40
2018-03-28T11:28:15.286Z,9.50
2018-03-28T11:30:43.453Z,9.50
2018-03-28T11:33:11.607Z,9.40
2018-03-28T11:35:39.756Z,9.40
2018-03-28T11:38:08.654Z,9.30
2018-03-28T11:40:37.870Z,9.30
2018-03-28T11:43:06.034Z,9.30
2018-03-28T11:45:34.949Z,9.30
2018-03-28T11:48:03.116Z,9.30
2018-03-28T11:50:31.407Z,9.40
2018-03-28T11:52:59.643Z,9.40
2018-03-28T11:55:28.542Z,9.40
2018-03-28T11:57:56.688Z,9.40
2018-03-28T12:00:26.695Z,9.40
2018-03-28T12:02:57.918Z,9.30
2018-03-28T12:05:26.056Z,9.30
2018-03-28T12:07:54.295Z,9.30
2018-03-28T12:10:26.540Z,9.30
2018-03-28T12:12:54.686Z,9.20
2018-03-28T12:15:22.938Z,9.20
2018-03-28T12:17:51.951Z,9.20
2018-03-28T12:20:20.208Z,9.20
2018-03-28T12:22:48.348Z,9.30
2018-03-28T12:25:16.568Z,9.20
2018-03-28T12:27:45.458Z,9.10
2018-03-28T12:30:13.597Z,9.10
2018-03-28T12:32:41.815Z,9.10
2018-03-28T12:35:09.973Z,9.10
2018-03-28T12:37:38.887Z,9.20
2018-03-28T12:40:07.118Z,9.10
2018-03-28T12:42:36.721Z,9.20
2018-03-28T12:45:05.050Z,9.20
2018-03-28T12:47:33.215Z,9.10
2018-03-28T12:50:01.616Z,9.10
2018-03-28T12:52:29.653Z,9.10
2018-03-28T12:54:57.896Z,9.10
2018-03-28T12:57:26.079Z,9.20
2018-03-28T12:59:55.217Z,9.30
2018-03-28T13:02:24.235Z,9.30
2018-03-28T13:04:52.379Z,9.30
2018-03-28T13:07:20.521Z,9.20
2018-03-28T13:09:48.706Z,9.10
2018-03-28T13:12:16.866Z,9.20
2018-03-28T13:14:45.012Z,9.20
2018-03-28T13:17:13.162Z,9.20
2018-03-28T13:19:41.367Z,9.20
2018-03-28T13:22:09.541Z,9.30
2018-03-28T13:24:37.758Z,9.30
2018-03-28T13:27:06.995Z,9.30
2018-03-28T13:29:35.162Z,9.30
2018-03-28T13:32:04.108Z,9.30
2018-03-28T13:34:32.486Z,9.40
2018-03-28T13:37:00.639Z,9.40
2018-03-28T13:39:29.650Z,9.40
2018-03-28T13:41:57.840Z,9.40
2018-03-28T13:44:26.008Z,9.50
2018-03-28T13:46:54.147Z,9.60
2018-03-28T13:49:22.294Z,9.70
2018-03-28T13:51:50.515Z,9.80
2018-03-28T13:54:18.641Z,9.90
2018-03-28T13:56:46.934Z,10.10
2018-03-28T13:59:15.347Z,10.10
2018-03-28T14:01:44.273Z,10.10
2018-03-28T14:04:12.417Z,10.10
2018-03-28T14:06:41.575Z,10.20
2018-03-28T14:09:09.774Z,10.20
2018-03-28T14:11:38.396Z,10.30
2018-03-28T14:14:06.587Z,10.50
2018-03-28T14:16:35.433Z,10.50
2018-03-28T14:19:04.345Z,10.60
2018-03-28T14:21:32.494Z,10.50
2018-03-28T14:24:01.430Z,10.60
2018-03-28T14:26:29.589Z,10.60
2018-03-28T14:28:57.738Z,10.70
2018-03-28T14:31:26.646Z,10.90
2018-03-28T14:33:54.808Z,10.90
2018-03-28T14:38:57.423Z,10.90
2018-03-28T14:41:25.593Z,10.80
2018-03-28T14:43:53.733Z,10.80
2018-03-28T14:46:22.829Z,10.80
2018-03-28T14:48:51.256Z,10.80
2018-03-28T14:51:19.416Z,10.80
2018-03-28T14:53:47.641Z,10.90
2018-03-28T14:56:15.787Z,11.10
2018-03-28T14:58:43.949Z,11.30
2018-03-28T15:01:12.507Z,11.40
2018-03-28T15:03:40.662Z,11.60
2018-03-28T15:06:09.735Z,12.20
2018-03-28T15:08:37.915Z,12.20
2018-03-28T15:11:06.179Z,12.20
2018-03-28T15:13:34.754Z,12.00
2018-03-28T15:16:02.916Z,11.80
2018-03-28T15:18:31.105Z,11.70
2018-03-28T15:20:59.295Z,11.60
2018-03-28T15:23:27.448Z,11.50
2018-03-28T15:25:55.801Z,11.50
2018-03-28T15:28:24.151Z,11.50
2018-03-28T15:30:53.148Z,11.30
2018-03-28T15:33:22.386Z,11.40
2018-03-28T15:35:50.534Z,11.40
2018-03-28T15:38:18.896Z,11.30
2018-03-28T15:40:47.951Z,11.20
2018-03-28T15:43:16.365Z,11.20
2018-03-28T15:45:45.313Z,11.20
2018-03-28T15:48:17.478Z,11.10
2018-03-28T15:50:45.649Z,11.10
2018-03-28T15:53:13.791Z,10.90
2018-03-28T15:55:41.985Z,10.70
2018-03-28T15:58:10.237Z,10.50
2018-03-28T16:00:38.404Z,10.30
2018-03-28T16:03:06.560Z,10.20
2018-03-28T16:05:35.470Z,10.20
2018-03-28T16:08:03.618Z,10.10
2018-03-28T16:10:32.533Z,9.80
2018-03-28T16:13:00.708Z,9.80
2018-03-28T16:15:29.609Z,9.50
2018-03-28T16:17:57.822Z,9.30
2018-03-28T16:20:25.972Z,9.10
2018-03-28T16:22:54.111Z,8.90
2018-03-28T16:25:23.718Z,8.60
2018-03-28T16:27:52.022Z,8.60
2018-03-28T16:30:20.272Z,8.40
2018-03-28T16:32:48.909Z,8.40
2018-03-28T16:35:17.978Z,8.10
2018-03-28T16:37:46.131Z,8.10
2018-03-28T16:40:15.018Z,7.90
2018-03-28T16:42:43.938Z,7.30
2018-03-28T16:45:12.176Z,7.30
2018-03-28T16:47:40.412Z,7.10
2018-03-28T16:50:08.886Z,7.00
2018-03-28T16:52:45.968Z,7.00
2018-03-28T16:55:14.160Z,7.00
2018-03-28T16:57:42.303Z,6.90
2018-03-28T17:00:10.688Z,6.90
2018-03-28T17:02:38.845Z,6.90
2018-03-28T17:05:06.976Z,6.80
2018-03-28T17:07:35.197Z,6.70
2018-03-28T17:10:03.383Z,6.70
2018-03-28T17:12:32.346Z,6.60
2018-03-28T17:15:00.490Z,6.60
2018-03-28T17:17:28.676Z,6.60
2018-03-28T17:19:57.572Z,6.50
2018-03-28T17:22:26.505Z,6.40
2018-03-28T17:24:54.649Z,6.40
2018-03-28T17:27:22.806Z,6.30
2018-03-28T17:29:51.704Z,6.10
2018-03-28T17:32:19.852Z,6.10
2018-03-28T17:34:48.891Z,6.00
2018-03-28T17:37:17.085Z,6.00
2018-03-28T17:39:45.244Z,6.00
2018-03-28T17:42:14.243Z,5.90
2018-03-28T17:44:42.433Z,5.90
2018-03-28T17:47:10.600Z,5.90
2018-03-28T17:49:38.822Z,5.80
2018-03-28T17:52:07.746Z,5.80
2018-03-28T17:54:35.936Z,5.80
2018-03-28T17:57:04.238Z,5.80
2018-03-28T17:59:32.453Z,5.80
2018-03-28T18:04:35.843Z,5.70
2018-03-28T18:07:03.998Z,5.60
2018-03-28T18:09:32.138Z,5.50
2018-03-28T18:12:00.286Z,5.40
2018-03-28T18:14:29.426Z,5.20
2018-03-28T18:16:57.560Z,5.20
2018-03-28T18:19:25.803Z,5.10
2018-03-28T18:21:53.957Z,5.10
2018-03-28T18:24:22.214Z,5.10
2018-03-28T18:26:50.533Z,5.10
2018-03-28T18:29:18.676Z,5.00
2018-03-28T18:31:46.895Z,5.00
2018-03-28T18:34:15.053Z,5.00
2018-03-28T18:36:44.125Z,5.00
2018-03-28T18:39:12.331Z,4.90
2018-03-28T18:41:41.271Z,4.90
2018-03-28T18:44:09.704Z,4.80
2018-03-28T18:46:39.397Z,4.80
2018-03-28T18:49:07.573Z,4.80
2018-03-28T18:51:35.722Z,4.80
2018-03-28T18:54:04.806Z,4.80
2018-03-28T18:56:32.971Z,4.80
2018-03-28T18:59:01.234Z,4.80
2018-03-28T19:01:29.382Z,4.80
2018-03-28T19:03:58.456Z,4.80
2018-03-28T19:06:26.648Z,4.70
2018-03-28T19:08:55.622Z,4.70
2018-03-28T19:11:23.854Z,4.70
2018-03-28T19:13:52.050Z,4.70
2018-03-28T19:16:20.192Z,4.70
2018-03-28T19:18:48.349Z,4.70
2018-03-28T19:21:16.649Z,4.80
2018-03-28T19:23:44.818Z,4.70
2018-03-28T19:26:13.170Z,4.80
2018-03-28T19:28:42.188Z,4.70
2018-03-28T19:31:10.371Z,4.70
2018-03-28T19:33:38.555Z,4.70
2018-03-28T19:36:06.700Z,4.70
2018-03-28T19:38:34.844Z,4.80
2018-03-28T19:41:03.694Z,4.70
2018-03-28T19:43:31.861Z,4.80
2018-03-28T19:46:00.112Z,4.80
2018-03-28T19:48:29.059Z,4.80
2018-03-28T19:50:57.220Z,4.80
2018-03-28T19:53:25.373Z,4.80
2018-03-28T19:55:53.551Z,4.80
2018-03-28T19:58:21.754Z,4.80
2018-03-28T20:00:50.910Z,4.80
2018-03-28T20:03:19.069Z,4.80
2018-03-28T20:05:47.220Z,4.80
2018-03-28T20:08:16.139Z,4.80
2018-03-28T20:10:44.304Z,4.80
2018-03-28T20:13:12.474Z,4.80
2018-03-28T20:15:40.830Z,4.80
2018-03-28T20:18:08.982Z,4.80
2018-03-28T20:20:37.165Z,4.80
2018-03-28T20:23:05.343Z,4.90
2018-03-28T20:25:33.515Z,4.90
2018-03-28T20:28:01.805Z,4.90
2018-03-28T20:30:30.035Z,4.90
2018-03-28T20:32:58.274Z,4.90
2018-03-28T20:35:27.194Z,4.90
2018-03-28T20:37:55.346Z,4.90
2018-03-28T20:40:23.510Z,4.90
2018-03-28T20:42:52.465Z,4.90
2018-03-28T20:45:20.624Z,4.90
2018-03-28T20:47:48.776Z,4.90
2018-03-28T20:50:16.975Z,5.00
2018-03-28T20:52:45.263Z,5.00
2018-03-28T20:55:13.568Z,5.00
2018-03-28T20:57:48.433Z,5.00
2018-03-28T21:00:16.724Z,5.00
2018-03-28T21:02:44.853Z,5.00
2018-03-28T21:05:13.791Z,5.00
2018-03-28T21:07:43.799Z,5.00
2018-03-28T21:10:12.024Z,4.90
2018-03-28T21:12:40.330Z,4.90
2018-03-28T21:15:08.595Z,4.90
2018-03-28T21:17:36.833Z,4.90
2018-03-28T21:20:06.287Z,4.90
2018-03-28T21:22:34.449Z,4.90
2018-03-28T21:25:03.863Z,4.90
2018-03-28T21:27:32.806Z,4.90
2018-03-28T21:30:00.932Z,4.90
2018-03-28T21:32:29.080Z,4.90
2018-03-28T21:34:58.146Z,4.90
2018-03-28T21:37:26.324Z,4.90
2018-03-28T21:39:54.698Z,4.90
2018-03-28T21:42:22.887Z,4.90
2018-03-28T21:44:51.043Z,4.90
2018-03-28T21:47:19.178Z,4.90
2018-03-28T21:49:47.618Z,4.90
2018-03-28T21:52:15.817Z,4.90
2018-03-28T21:54:44.289Z,4.90
2018-03-28T21:57:12.531Z,4.90
2018-03-28T21:59:40.683Z,4.90
2018-03-28T22:02:08.951Z,4.90
2018-03-28T22:04:37.255Z,4.90
2018-03-28T22:07:05.404Z,4.90
2018-03-28T22:09:35.254Z,4.90
2018-03-28T22:12:03.493Z,4.90
2018-03-28T22:14:32.005Z,4.90
2018-03-28T22:17:01.007Z,4.90
2018-03-28T22:19:29.339Z,4.90
2018-03-28T22:21:57.486Z,4.90
2018-03-28T22:24:25.665Z,4.90
2018-03-28T22:26:54.604Z,4.90
2018-03-28T22:29:22.917Z,4.90
2018-03-28T22:31:51.837Z,4.90
2018-03-28T22:34:20.027Z,4.90
2018-03-28T22:36:48.449Z,4.90
2018-03-28T22:39:16.964Z,4.90
2018-03-28T22:41:45.132Z,4.90
2018-03-28T22:44:13.321Z,4.90
2018-03-28T22:46:41.548Z,4.90
2018-03-28T22:49:09.729Z,4.90
2018-03-28T22:51:38.660Z,4.90
2018-03-28T22:54:07.603Z,4.90
2018-03-28T22:56:36.504Z,4.90
2018-03-28T22:59:05.409Z,4.90
2018-03-28T23:01:33.676Z,4.90
2018-03-28T23:04:02.610Z,4.90
2018-03-28T23:06:30.830Z,4.90
2018-03-28T23:08:58.991Z,5.00
2018-03-28T23:11:27.792Z,4.90
2018-03-28T23:13:55.959Z,4.90
2018-03-28T23:16:24.249Z,5.00
2018-03-28T23:18:52.550Z,4.90
2018-03-28T23:21:20.708Z,5.00
2018-03-28T23:23:49.640Z,5.00
2018-03-28T23:26:17.801Z,4.90
2018-03-28T23:28:46.039Z,5.00
2018-03-28T23:31:14.946Z,5.00
2018-03-28T23:33:43.121Z,5.00
2018-03-28T23:36:11.279Z,5.00
2018-03-28T23:38:39.522Z,5.00
2018-03-28T23:41:07.708Z,5.00
2018-03-28T23:43:35.883Z,5.10
2018-03-28T23:46:04.186Z,5.10
2018-03-28T23:48:33.159Z,5.10
2018-03-28T23:51:01.318Z,5.10
2018-03-28T23:53:29.477Z,5.10
2018-03-28T23:55:57.664Z,5.20
2018-03-28T23:58:31.694Z,5.20
